sensor_id;sensor_type;location;lat;lon;timestamp;temperature;humidity
52565;DHT22;38460;53.106;7.004;2023-04-25T00:01:22;6.50;99.90
52565;DHT22;38460;53.106;7.004;2023-04-25T00:03:48;6.50;99.90
52565;DHT22;38460;53.106;7.004;2023-04-25T00:06:14;6.40;99.90
52565;DHT22;38460;53.106;7.004;2023-04-25T00:08:40;6.40;99.90
52565;DHT22;38460;53.106;7.004;2023-04-25T00:11:06;6.40;99.90
52565;DHT22;38460;53.106;7.004;2023-04-25T00:13:32;6.40;99.90
52565;DHT22;38460;53.106;7.004;2023-04-25T00:15:58;6.40;99.90
52565;DHT22;38460;53.106;7.004;2023-04-25T00:18:26;6.40;99.90
52565;DHT22;38460;53.106;7.004;2023-04-25T00:20:54;6.40;99.90
52565;DHT22;38460;53.106;7.004;2023-04-25T00:23:21;6.40;99.90
52565;DHT22;38460;53.106;7.004;2023-04-25T00:25:48;6.30;99.90
52565;DHT22;38460;53.106;7.004;2023-04-25T00:28:15;6.30;99.90
52565;DHT22;38460;53.106;7.004;2023-04-25T00:30:41;6.30;99.90
52565;DHT22;38460;53.106;7.004;2023-04-25T00:44:01;6.30;99.90
52565;DHT22;38460;53.106;7.004;2023-04-25T00:46:27;6.30;99.90
52565;DHT22;38460;53.106;7.004;2023-04-25T00:48:53;6.30;99.90
52565;DHT22;38460;53.106;7.004;2023-04-25T00:51:22;6.20;99.90
52565;DHT22;38460;53.106;7.004;2023-04-25T00:53:49;6.20;99.90
52565;DHT22;38460;53.106;7.004;2023-04-25T00:56:16;6.20;99.90
52565;DHT22;38460;53.106;7.004;2023-04-25T00:58:42;6.20;99.90
52565;DHT22;38460;53.106;7.004;2023-04-25T01:01:08;6.20;99.90
52565;DHT22;38460;53.106;7.004;2023-04-25T01:03:37;6.20;99.90
52565;DHT22;38460;53.106;7.004;2023-04-25T01:06:08;6.10;99.90
52565;DHT22;38460;53.106;7.004;2023-04-25T01:08:34;6.10;99.90
52565;DHT22;38460;53.106;7.004;2023-04-25T01:11:00;6.10;99.90
52565;DHT22;38460;53.106;7.004;2023-04-25T01:13:26;6.10;99.90
52565;DHT22;38460;53.106;7.004;2023-04-25T01:15:52;6.10;99.90
52565;DHT22;38460;53.106;7.004;2023-04-25T01:18:19;6.00;99.90
52565;DHT22;38460;53.106;7.004;2023-04-25T01:20:46;6.00;99.90
52565;DHT22;38460;53.106;7.004;2023-04-25T01:23:13;6.90;99.90
52565;DHT22;38460;53.106;7.004;2023-04-25T01:25:40;5.90;99.90
52565;DHT22;38460;53.106;7.004;2023-04-25T01:28:06;5.90;99.90
52565;DHT22;38460;53.106;7.004;2023-04-25T01:30:31;5.90;99.90
52565;DHT22;38460;53.106;7.004;2023-04-25T01:32:57;5.90;99.90
52565;DHT22;38460;53.106;7.004;2023-04-25T01:35:24;5.80;99.90
52565;DHT22;38460;53.106;7.004;2023-04-25T01:37:51;5.90;99.90
52565;DHT22;38460;53.106;7.004;2023-04-25T01:40:17;5.80;99.90
52565;DHT22;38460;53.106;7.004;2023-04-25T01:42:44;5.80;99.90
52565;DHT22;38460;53.106;7.004;2023-04-25T01:45:11;5.80;99.90
52565;DHT22;38460;53.106;7.004;2023-04-25T01:47:38;5.80;99.90
52565;DHT22;38460;53.106;7.004;2023-04-25T01:50:07;5.80;99.90
52565;DHT22;38460;53.106;7.004;2023-04-25T01:52:33;5.80;99.90
52565;DHT22;38460;53.106;7.004;2023-04-25T01:55:02;5.80;99.90
52565;DHT22;38460;53.106;7.004;2023-04-25T01:57:28;5.80;99.90
52565;DHT22;38460;53.106;7.004;2023-04-25T02:00:03;5.80;99.90
52565;DHT22;38460;53.106;7.004;2023-04-25T02:02:29;5.80;99.90
52565;DHT22;38460;53.106;7.004;2023-04-25T02:04:55;5.90;99.90
52565;DHT22;38460;53.106;7.004;2023-04-25T02:07:21;5.80;99.90
52565;DHT22;38460;53.106;7.004;2023-04-25T02:09:47;5.80;99.90
52565;DHT22;38460;53.106;7.004;2023-04-25T02:12:13;5.70;99.90
52565;DHT22;38460;53.106;7.004;2023-04-25T02:14:39;5.70;99.90
52565;DHT22;38460;53.106;7.004;2023-04-25T02:17:05;5.70;99.90
52565;DHT22;38460;53.106;7.004;2023-04-25T02:19:31;5.70;99.90
52565;DHT22;38460;53.106;7.004;2023-04-25T02:21:57;5.70;99.90
52565;DHT22;38460;53.106;7.004;2023-04-25T02:24:23;5.70;99.90
52565;DHT22;38460;53.106;7.004;2023-04-25T02:26:49;5.70;99.90
52565;DHT22;38460;53.106;7.004;2023-04-25T02:29:15;5.70;99.90
52565;DHT22;38460;53.106;7.004;2023-04-25T02:31:41;5.70;99.90
52565;DHT22;38460;53.106;7.004;2023-04-25T02:34:07;5.70;99.90
52565;DHT22;38460;53.106;7.004;2023-04-25T02:36:33;5.70;99.90
52565;DHT22;38460;53.106;7.004;2023-04-25T02:39:01;5.70;99.90
52565;DHT22;38460;53.106;7.004;2023-04-25T02:41:27;5.70;99.90
52565;DHT22;38460;53.106;7.004;2023-04-25T02:43:52;5.60;99.90
52565;DHT22;38460;53.106;7.004;2023-04-25T02:46:18;5.60;99.90
52565;DHT22;38460;53.106;7.004;2023-04-25T02:48:44;5.60;99.90
52565;DHT22;38460;53.106;7.004;2023-04-25T02:51:09;5.60;99.90
52565;DHT22;38460;53.106;7.004;2023-04-25T02:53:35;5.50;99.90
52565;DHT22;38460;53.106;7.004;2023-04-25T02:56:01;5.40;99.90
52565;DHT22;38460;53.106;7.004;2023-04-25T02:58:27;5.40;99.90
52565;DHT22;38460;53.106;7.004;2023-04-25T03:00:53;5.40;99.90
52565;DHT22;38460;53.106;7.004;2023-04-25T03:03:19;5.40;99.90
52565;DHT22;38460;53.106;7.004;2023-04-25T03:05:48;5.40;99.90
52565;DHT22;38460;53.106;7.004;2023-04-25T03:11:55;5.30;99.90
52565;DHT22;38460;53.106;7.004;2023-04-25T03:14:20;5.40;99.90
52565;DHT22;38460;53.106;7.004;2023-04-25T03:16:46;6.40;99.90
52565;DHT22;38460;53.106;7.004;2023-04-25T03:31:05;5.20;99.90
52565;DHT22;38460;53.106;7.004;2023-04-25T03:33:31;5.10;99.90
52565;DHT22;38460;53.106;7.004;2023-04-25T03:35:57;5.10;99.90
52565;DHT22;38460;53.106;7.004;2023-04-25T03:38:23;5.10;99.90
52565;DHT22;38460;53.106;7.004;2023-04-25T03:40:49;5.00;99.90
52565;DHT22;38460;53.106;7.004;2023-04-25T03:43:16;5.00;99.90
52565;DHT22;38460;53.106;7.004;2023-04-25T03:45:42;5.00;99.90
52565;DHT22;38460;53.106;7.004;2023-04-25T03:48:07;5.00;99.90
52565;DHT22;38460;53.106;7.004;2023-04-25T03:50:34;5.00;99.90
52565;DHT22;38460;53.106;7.004;2023-04-25T03:52:59;5.00;99.90
52565;DHT22;38460;53.106;7.004;2023-04-25T03:55:25;4.90;99.90
52565;DHT22;38460;53.106;7.004;2023-04-25T03:57:51;4.90;99.90
52565;DHT22;38460;53.106;7.004;2023-04-25T04:00:17;4.80;99.90
52565;DHT22;38460;53.106;7.004;2023-04-25T04:02:42;4.80;99.90
52565;DHT22;38460;53.106;7.004;2023-04-25T04:05:08;4.80;99.90
52565;DHT22;38460;53.106;7.004;2023-04-25T04:07:34;4.70;99.90
52565;DHT22;38460;53.106;7.004;2023-04-25T04:10:06;4.70;99.90
52565;DHT22;38460;53.106;7.004;2023-04-25T04:12:33;4.60;99.90
52565;DHT22;38460;53.106;7.004;2023-04-25T04:14:58;4.60;99.90
52565;DHT22;38460;53.106;7.004;2023-04-25T04:17:24;4.60;99.90
52565;DHT22;38460;53.106;7.004;2023-04-25T04:19:50;4.50;99.90
52565;DHT22;38460;53.106;7.004;2023-04-25T04:22:16;4.50;99.90
52565;DHT22;38460;53.106;7.004;2023-04-25T04:24:42;4.40;99.90
52565;DHT22;38460;53.106;7.004;2023-04-25T04:27:12;4.50;99.90
52565;DHT22;38460;53.106;7.004;2023-04-25T04:29:38;4.40;99.90
52565;DHT22;38460;53.106;7.004;2023-04-25T04:32:04;4.50;99.90
52565;DHT22;38460;53.106;7.004;2023-04-25T04:34:30;4.50;99.90
52565;DHT22;38460;53.106;7.004;2023-04-25T04:36:57;4.50;99.90
52565;DHT22;38460;53.106;7.004;2023-04-25T04:39:23;4.60;99.90
52565;DHT22;38460;53.106;7.004;2023-04-25T04:41:48;4.50;99.90
52565;DHT22;38460;53.106;7.004;2023-04-25T04:44:14;4.60;99.90
52565;DHT22;38460;53.106;7.004;2023-04-25T04:46:40;4.60;99.90
52565;DHT22;38460;53.106;7.004;2023-04-25T04:49:11;4.50;99.90
52565;DHT22;38460;53.106;7.004;2023-04-25T04:51:38;4.50;99.90
52565;DHT22;38460;53.106;7.004;2023-04-25T04:54:04;4.50;99.90
52565;DHT22;38460;53.106;7.004;2023-04-25T04:56:30;4.50;99.90
52565;DHT22;38460;53.106;7.004;2023-04-25T04:58:57;4.50;99.90
52565;DHT22;38460;53.106;7.004;2023-04-25T05:01:23;4.50;99.90
52565;DHT22;38460;53.106;7.004;2023-04-25T05:03:49;4.50;99.90
52565;DHT22;38460;53.106;7.004;2023-04-25T05:06:16;4.40;99.90
52565;DHT22;38460;53.106;7.004;2023-04-25T05:08:42;4.40;99.90
52565;DHT22;38460;53.106;7.004;2023-04-25T05:11:07;4.40;99.90
52565;DHT22;38460;53.106;7.004;2023-04-25T05:13:33;4.40;99.90
52565;DHT22;38460;53.106;7.004;2023-04-25T05:15:59;4.40;99.90
52565;DHT22;38460;53.106;7.004;2023-04-25T05:18:24;4.40;99.90
52565;DHT22;38460;53.106;7.004;2023-04-25T05:20:50;4.40;99.90
52565;DHT22;38460;53.106;7.004;2023-04-25T05:23:16;4.30;99.90
52565;DHT22;38460;53.106;7.004;2023-04-25T05:25:42;4.40;99.90
52565;DHT22;38460;53.106;7.004;2023-04-25T05:28:07;4.40;99.90
52565;DHT22;38460;53.106;7.004;2023-04-25T05:30:34;4.40;99.90
52565;DHT22;38460;53.106;7.004;2023-04-25T05:33:00;4.50;99.90
52565;DHT22;38460;53.106;7.004;2023-04-25T05:35:26;4.60;99.90
52565;DHT22;38460;53.106;7.004;2023-04-25T05:37:52;4.60;99.90
52565;DHT22;38460;53.106;7.004;2023-04-25T05:40:18;4.60;99.90
52565;DHT22;38460;53.106;7.004;2023-04-25T05:42:44;4.70;99.90
52565;DHT22;38460;53.106;7.004;2023-04-25T05:45:10;4.70;99.90
52565;DHT22;38460;53.106;7.004;2023-04-25T05:47:35;4.70;99.90
52565;DHT22;38460;53.106;7.004;2023-04-25T05:50:01;4.60;99.90
52565;DHT22;38460;53.106;7.004;2023-04-25T05:52:27;4.60;99.90
52565;DHT22;38460;53.106;7.004;2023-04-25T05:54:53;4.60;99.90
52565;DHT22;38460;53.106;7.004;2023-04-25T05:57:26;4.60;99.90
52565;DHT22;38460;53.106;7.004;2023-04-25T05:59:52;4.60;99.90
52565;DHT22;38460;53.106;7.004;2023-04-25T06:02:19;4.70;99.90
52565;DHT22;38460;53.106;7.004;2023-04-25T06:04:46;4.70;99.90
52565;DHT22;38460;53.106;7.004;2023-04-25T06:07:12;4.70;99.90
52565;DHT22;38460;53.106;7.004;2023-04-25T06:09:38;4.70;99.90
52565;DHT22;38460;53.106;7.004;2023-04-25T06:12:05;4.80;99.90
52565;DHT22;38460;53.106;7.004;2023-04-25T06:14:31;4.80;99.90
52565;DHT22;38460;53.106;7.004;2023-04-25T06:16:57;4.90;99.90
52565;DHT22;38460;53.106;7.004;2023-04-25T06:19:23;4.90;99.90
52565;DHT22;38460;53.106;7.004;2023-04-25T06:21:49;5.00;99.90
52565;DHT22;38460;53.106;7.004;2023-04-25T06:24:14;5.10;99.90
52565;DHT22;38460;53.106;7.004;2023-04-25T06:26:40;5.20;99.90
52565;DHT22;38460;53.106;7.004;2023-04-25T06:29:06;5.20;99.90
52565;DHT22;38460;53.106;7.004;2023-04-25T06:31:31;5.30;99.90
52565;DHT22;38460;53.106;7.004;2023-04-25T06:33:59;5.30;99.90
52565;DHT22;38460;53.106;7.004;2023-04-25T06:36:24;5.30;99.90
52565;DHT22;38460;53.106;7.004;2023-04-25T06:38:53;5.40;99.90
52565;DHT22;38460;53.106;7.004;2023-04-25T06:41:20;5.40;99.90
52565;DHT22;38460;53.106;7.004;2023-04-25T06:43:46;5.40;99.90
52565;DHT22;38460;53.106;7.004;2023-04-25T06:46:12;5.40;99.90
52565;DHT22;38460;53.106;7.004;2023-04-25T06:48:37;5.40;99.90
52565;DHT22;38460;53.106;7.004;2023-04-25T06:51:03;5.50;99.90
52565;DHT22;38460;53.106;7.004;2023-04-25T06:53:29;5.50;99.90
52565;DHT22;38460;53.106;7.004;2023-04-25T06:55:55;5.50;99.90
52565;DHT22;38460;53.106;7.004;2023-04-25T06:58:21;5.50;99.90
52565;DHT22;38460;53.106;7.004;2023-04-25T07:00:47;5.60;99.90
52565;DHT22;38460;53.106;7.004;2023-04-25T07:03:12;5.60;99.90
52565;DHT22;38460;53.106;7.004;2023-04-25T07:05:38;5.70;99.90
52565;DHT22;38460;53.106;7.004;2023-04-25T07:08:04;5.80;99.90
52565;DHT22;38460;53.106;7.004;2023-04-25T07:10:30;5.80;99.90
52565;DHT22;38460;53.106;7.004;2023-04-25T07:12:55;5.90;99.90
52565;DHT22;38460;53.106;7.004;2023-04-25T07:15:21;6.00;99.90
52565;DHT22;38460;53.106;7.004;2023-04-25T07:17:47;6.10;99.90
52565;DHT22;38460;53.106;7.004;2023-04-25T07:20:13;6.20;99.90
52565;DHT22;38460;53.106;7.004;2023-04-25T07:22:39;6.30;99.90
52565;DHT22;38460;53.106;7.004;2023-04-25T07:25:05;6.40;99.90
52565;DHT22;38460;53.106;7.004;2023-04-25T07:27:33;6.50;99.90
52565;DHT22;38460;53.106;7.004;2023-04-25T07:29:59;6.50;99.90
52565;DHT22;38460;53.106;7.004;2023-04-25T07:32:25;6.50;99.90
52565;DHT22;38460;53.106;7.004;2023-04-25T07:34:52;6.50;99.90
52565;DHT22;38460;53.106;7.004;2023-04-25T07:37:17;6.40;99.90
52565;DHT22;38460;53.106;7.004;2023-04-25T07:39:44;6.50;99.90
52565;DHT22;38460;53.106;7.004;2023-04-25T07:42:11;6.50;99.90
52565;DHT22;38460;53.106;7.004;2023-04-25T07:44:37;6.50;99.90
52565;DHT22;38460;53.106;7.004;2023-04-25T07:47:07;6.50;99.90
52565;DHT22;38460;53.106;7.004;2023-04-25T07:49:33;6.60;99.90
52565;DHT22;38460;53.106;7.004;2023-04-25T07:52:00;6.70;99.90
52565;DHT22;38460;53.106;7.004;2023-04-25T07:54:26;6.80;99.90
52565;DHT22;38460;53.106;7.004;2023-04-25T07:56:52;6.70;99.90
52565;DHT22;38460;53.106;7.004;2023-04-25T07:59:17;6.70;99.90
52565;DHT22;38460;53.106;7.004;2023-04-25T08:01:43;6.80;99.90
52565;DHT22;38460;53.106;7.004;2023-04-25T08:04:09;6.80;99.90
52565;DHT22;38460;53.106;7.004;2023-04-25T08:06:35;6.90;99.90
52565;DHT22;38460;53.106;7.004;2023-04-25T08:09:01;7.00;99.90
52565;DHT22;38460;53.106;7.004;2023-04-25T08:11:28;7.10;99.90
52565;DHT22;38460;53.106;7.004;2023-04-25T08:13:54;7.30;99.90
52565;DHT22;38460;53.106;7.004;2023-04-25T08:16:20;7.40;99.90
52565;DHT22;38460;53.106;7.004;2023-04-25T08:18:46;7.40;99.90
52565;DHT22;38460;53.106;7.004;2023-04-25T08:21:11;7.40;99.90
52565;DHT22;38460;53.106;7.004;2023-04-25T08:23:38;7.40;99.90
52565;DHT22;38460;53.106;7.004;2023-04-25T08:26:04;7.40;99.90
52565;DHT22;38460;53.106;7.004;2023-04-25T08:28:31;7.40;99.90
52565;DHT22;38460;53.106;7.004;2023-04-25T08:30:57;7.40;99.90
52565;DHT22;38460;53.106;7.004;2023-04-25T08:33:23;7.40;99.90
52565;DHT22;38460;53.106;7.004;2023-04-25T08:35:49;7.30;99.90
52565;DHT22;38460;53.106;7.004;2023-04-25T08:38:15;7.40;99.90
52565;DHT22;38460;53.106;7.004;2023-04-25T08:40:41;7.50;99.90
52565;DHT22;38460;53.106;7.004;2023-04-25T08:43:09;7.50;99.90
52565;DHT22;38460;53.106;7.004;2023-04-25T08:45:41;7.70;99.90
52565;DHT22;38460;53.106;7.004;2023-04-25T08:48:10;7.80;99.90
52565;DHT22;38460;53.106;7.004;2023-04-25T08:50:40;7.90;99.90
52565;DHT22;38460;53.106;7.004;2023-04-25T08:53:09;7.70;99.90
52565;DHT22;38460;53.106;7.004;2023-04-25T08:55:41;7.50;99.90
52565;DHT22;38460;53.106;7.004;2023-04-25T08:58:09;7.30;99.90
52565;DHT22;38460;53.106;7.004;2023-04-25T09:00:36;7.20;99.90
52565;DHT22;38460;53.106;7.004;2023-04-25T09:03:02;7.20;99.90
52565;DHT22;38460;53.106;7.004;2023-04-25T09:05:28;7.10;99.90
52565;DHT22;38460;53.106;7.004;2023-04-25T09:07:54;7.10;99.90
52565;DHT22;38460;53.106;7.004;2023-04-25T09:10:22;7.10;99.90
52565;DHT22;38460;53.106;7.004;2023-04-25T09:15:47;7.20;99.90
52565;DHT22;38460;53.106;7.004;2023-04-25T09:18:17;7.30;99.90
52565;DHT22;38460;53.106;7.004;2023-04-25T09:20:47;7.30;99.90
52565;DHT22;38460;53.106;7.004;2023-04-25T09:23:14;7.40;99.90
52565;DHT22;38460;53.106;7.004;2023-04-25T09:25:40;7.50;99.90
52565;DHT22;38460;53.106;7.004;2023-04-25T09:28:08;7.60;99.90
52565;DHT22;38460;53.106;7.004;2023-04-25T09:30:35;7.80;99.90
52565;DHT22;38460;53.106;7.004;2023-04-25T09:35:36;8.00;99.90
52565;DHT22;38460;53.106;7.004;2023-04-25T09:38:11;8.10;99.90
52565;DHT22;38460;53.106;7.004;2023-04-25T09:40:45;8.20;99.90
52565;DHT22;38460;53.106;7.004;2023-04-25T09:43:31;8.40;99.90
52565;DHT22;38460;53.106;7.004;2023-04-25T09:45:57;8.50;99.90
52565;DHT22;38460;53.106;7.004;2023-04-25T09:48:26;8.60;99.90
52565;DHT22;38460;53.106;7.004;2023-04-25T09:51:12;8.70;99.90
52565;DHT22;38460;53.106;7.004;2023-04-25T09:53:43;8.90;99.90
52565;DHT22;38460;53.106;7.004;2023-04-25T09:56:10;8.90;99.90
52565;DHT22;38460;53.106;7.004;2023-04-25T09:58:38;9.00;99.90
52565;DHT22;38460;53.106;7.004;2023-04-25T10:01:06;9.00;99.90
52565;DHT22;38460;53.106;7.004;2023-04-25T10:03:35;8.90;99.90
52565;DHT22;38460;53.106;7.004;2023-04-25T10:06:03;8.80;99.90
52565;DHT22;38460;53.106;7.004;2023-04-25T10:08:34;8.70;99.90
52565;DHT22;38460;53.106;7.004;2023-04-25T10:11:05;8.60;99.90
52565;DHT22;38460;53.106;7.004;2023-04-25T10:13:31;8.50;99.90
52565;DHT22;38460;53.106;7.004;2023-04-25T10:16:02;8.40;99.90
52565;DHT22;38460;53.106;7.004;2023-04-25T10:18:29;8.40;99.90
52565;DHT22;38460;53.106;7.004;2023-04-25T10:20:56;8.40;99.90
52565;DHT22;38460;53.106;7.004;2023-04-25T10:23:23;8.40;99.90
52565;DHT22;38460;53.106;7.004;2023-04-25T10:25:50;8.50;99.90
52565;DHT22;38460;53.106;7.004;2023-04-25T10:28:17;8.80;99.90
52565;DHT22;38460;53.106;7.004;2023-04-25T10:33:38;9.20;99.90
52565;DHT22;38460;53.106;7.004;2023-04-25T10:36:31;9.20;99.90
52565;DHT22;38460;53.106;7.004;2023-04-25T10:39:06;9.00;99.90
52565;DHT22;38460;53.106;7.004;2023-04-25T10:42:02;9.10;99.90
52565;DHT22;38460;53.106;7.004;2023-04-25T10:44:28;9.30;99.90
52565;DHT22;38460;53.106;7.004;2023-04-25T10:47:00;9.40;99.90
52565;DHT22;38460;53.106;7.004;2023-04-25T10:49:34;9.20;99.90
52565;DHT22;38460;53.106;7.004;2023-04-25T10:52:24;8.60;99.90
52565;DHT22;38460;53.106;7.004;2023-04-25T10:54:58;8.30;99.90
52565;DHT22;38460;53.106;7.004;2023-04-25T10:57:37;8.00;99.90
52565;DHT22;38460;53.106;7.004;2023-04-25T11:00:07;7.80;99.90
52565;DHT22;38460;53.106;7.004;2023-04-25T11:02:51;7.60;99.90
52565;DHT22;38460;53.106;7.004;2023-04-25T11:05:32;7.60;99.90
52565;DHT22;38460;53.106;7.004;2023-04-25T11:08:00;7.60;99.90
52565;DHT22;38460;53.106;7.004;2023-04-25T11:10:31;7.70;99.90
52565;DHT22;38460;53.106;7.004;2023-04-25T11:13:00;7.70;99.90
52565;DHT22;38460;53.106;7.004;2023-04-25T11:15:27;7.80;99.90
52565;DHT22;38460;53.106;7.004;2023-04-25T11:17:53;8.00;99.90
52565;DHT22;38460;53.106;7.004;2023-04-25T11:20:20;8.20;99.90
52565;DHT22;38460;53.106;7.004;2023-04-25T11:22:47;8.60;99.90
52565;DHT22;38460;53.106;7.004;2023-04-25T11:25:14;9.00;99.90
52565;DHT22;38460;53.106;7.004;2023-04-25T11:30:17;9.50;99.90
52565;DHT22;38460;53.106;7.004;2023-04-25T11:32:43;9.00;99.90
52565;DHT22;38460;53.106;7.004;2023-04-25T11:35:10;8.80;99.90
52565;DHT22;38460;53.106;7.004;2023-04-25T11:37:37;8.60;99.90
52565;DHT22;38460;53.106;7.004;2023-04-25T11:40:04;8.50;99.90
52565;DHT22;38460;53.106;7.004;2023-04-25T11:42:32;8.40;99.90
52565;DHT22;38460;53.106;7.004;2023-04-25T11:44:59;8.40;99.90
52565;DHT22;38460;53.106;7.004;2023-04-25T11:47:33;8.40;99.90
52565;DHT22;38460;53.106;7.004;2023-04-25T11:50:00;8.40;99.90
52565;DHT22;38460;53.106;7.004;2023-04-25T11:52:43;8.50;99.90
52565;DHT22;38460;53.106;7.004;2023-04-25T11:55:16;8.90;99.90
52565;DHT22;38460;53.106;7.004;2023-04-25T11:57:44;9.20;99.90
52565;DHT22;38460;53.106;7.004;2023-04-25T12:00:17;9.20;99.90
52565;DHT22;38460;53.106;7.004;2023-04-25T12:02:45;9.40;99.90
52565;DHT22;38460;53.106;7.004;2023-04-25T12:05:12;9.40;99.90
52565;DHT22;38460;53.106;7.004;2023-04-25T12:07:38;9.40;99.90
52565;DHT22;38460;53.106;7.004;2023-04-25T12:10:05;9.50;99.90
52565;DHT22;38460;53.106;7.004;2023-04-25T12:12:35;9.60;99.90
52565;DHT22;38460;53.106;7.004;2023-04-25T12:15:15;9.70;99.90
52565;DHT22;38460;53.106;7.004;2023-04-25T12:17:45;9.90;99.90
52565;DHT22;38460;53.106;7.004;2023-04-25T12:20:17;9.90;99.90
52565;DHT22;38460;53.106;7.004;2023-04-25T12:22:45;9.60;99.90
52565;DHT22;38460;53.106;7.004;2023-04-25T12:25:40;9.50;99.90
52565;DHT22;38460;53.106;7.004;2023-04-25T12:28:22;9.70;99.90
52565;DHT22;38460;53.106;7.004;2023-04-25T12:31:05;9.60;99.90
52565;DHT22;38460;53.106;7.004;2023-04-25T12:33:36;9.80;99.90
52565;DHT22;38460;53.106;7.004;2023-04-25T12:36:03;10.00;99.90
52565;DHT22;38460;53.106;7.004;2023-04-25T12:38:36;10.20;99.90
52565;DHT22;38460;53.106;7.004;2023-04-25T12:41:02;10.40;99.90
52565;DHT22;38460;53.106;7.004;2023-04-25T12:43:28;10.60;99.90
52565;DHT22;38460;53.106;7.004;2023-04-25T12:45:55;10.80;99.70
52565;DHT22;38460;53.106;7.004;2023-04-25T12:48:22;10.90;99.90
52565;DHT22;38460;53.106;7.004;2023-04-25T12:50:49;10.70;99.90
52565;DHT22;38460;53.106;7.004;2023-04-25T12:53:16;10.50;99.90
52565;DHT22;38460;53.106;7.004;2023-04-25T12:55:42;10.30;99.90
52565;DHT22;38460;53.106;7.004;2023-04-25T12:58:08;10.30;99.90
52565;DHT22;38460;53.106;7.004;2023-04-25T13:00:34;10.00;99.90
52565;DHT22;38460;53.106;7.004;2023-04-25T13:03:00;9.90;99.90
52565;DHT22;38460;53.106;7.004;2023-04-25T13:05:26;10.10;99.90
52565;DHT22;38460;53.106;7.004;2023-04-25T13:07:52;10.20;99.90
52565;DHT22;38460;53.106;7.004;2023-04-25T13:10:18;10.40;99.90
52565;DHT22;38460;53.106;7.004;2023-04-25T13:12:44;10.50;99.90
52565;DHT22;38460;53.106;7.004;2023-04-25T13:15:10;10.60;99.90
52565;DHT22;38460;53.106;7.004;2023-04-25T13:17:37;10.60;99.90
52565;DHT22;38460;53.106;7.004;2023-04-25T13:20:05;10.30;98.80
52565;DHT22;38460;53.106;7.004;2023-04-25T13:22:37;10.10;99.20
52565;DHT22;38460;53.106;7.004;2023-04-25T13:25:05;10.20;99.90
52565;DHT22;38460;53.106;7.004;2023-04-25T13:27:31;10.30;99.90
52565;DHT22;38460;53.106;7.004;2023-04-25T13:30:00;10.20;99.90
52565;DHT22;38460;53.106;7.004;2023-04-25T13:32:26;10.10;99.90
52565;DHT22;38460;53.106;7.004;2023-04-25T13:34:53;10.10;99.90
52565;DHT22;38460;53.106;7.004;2023-04-25T13:37:18;10.20;99.90
52565;DHT22;38460;53.106;7.004;2023-04-25T13:39:44;10.30;99.90
52565;DHT22;38460;53.106;7.004;2023-04-25T13:42:10;10.60;99.90
52565;DHT22;38460;53.106;7.004;2023-04-25T13:44:36;10.60;99.20
52565;DHT22;38460;53.106;7.004;2023-04-25T13:47:02;10.30;99.90
52565;DHT22;38460;53.106;7.004;2023-04-25T13:49:28;10.00;99.90
52565;DHT22;38460;53.106;7.004;2023-04-25T13:51:54;9.70;99.90
52565;DHT22;38460;53.106;7.004;2023-04-25T13:54:20;9.50;99.90
52565;DHT22;38460;53.106;7.004;2023-04-25T13:56:46;9.60;99.90
52565;DHT22;38460;53.106;7.004;2023-04-25T13:59:12;9.80;99.90
52565;DHT22;38460;53.106;7.004;2023-04-25T14:01:37;9.90;99.90
52565;DHT22;38460;53.106;7.004;2023-04-25T14:04:03;10.10;99.90
52565;DHT22;38460;53.106;7.004;2023-04-25T14:06:31;10.30;99.90
52565;DHT22;38460;53.106;7.004;2023-04-25T14:08:57;10.30;99.90
52565;DHT22;38460;53.106;7.004;2023-04-25T14:11:23;10.20;99.90
52565;DHT22;38460;53.106;7.004;2023-04-25T14:13:48;10.00;99.90
52565;DHT22;38460;53.106;7.004;2023-04-25T14:16:16;9.80;99.90
52565;DHT22;38460;53.106;7.004;2023-04-25T14:18:41;9.80;99.90
52565;DHT22;38460;53.106;7.004;2023-04-25T14:21:08;9.70;99.90
52565;DHT22;38460;53.106;7.004;2023-04-25T14:23:34;9.90;99.90
52565;DHT22;38460;53.106;7.004;2023-04-25T14:26:00;9.90;99.90
52565;DHT22;38460;53.106;7.004;2023-04-25T14:28:26;10.20;99.90
52565;DHT22;38460;53.106;7.004;2023-04-25T14:30:52;10.30;98.20
52565;DHT22;38460;53.106;7.004;2023-04-25T14:33:18;10.40;98.30
52565;DHT22;38460;53.106;7.004;2023-04-25T14:35:44;10.50;97.60
52565;DHT22;38460;53.106;7.004;2023-04-25T14:38:09;10.60;96.60
52565;DHT22;38460;53.106;7.004;2023-04-25T14:40:35;10.70;95.90
52565;DHT22;38460;53.106;7.004;2023-04-25T14:43:02;10.80;96.10
52565;DHT22;38460;53.106;7.004;2023-04-25T14:45:28;10.70;96.30
52565;DHT22;38460;53.106;7.004;2023-04-25T14:47:53;10.50;96.80
52565;DHT22;38460;53.106;7.004;2023-04-25T14:50:19;10.20;97.50
52565;DHT22;38460;53.106;7.004;2023-04-25T14:52:45;9.90;98.90
52565;DHT22;38460;53.106;7.004;2023-04-25T14:55:11;9.80;99.70
52565;DHT22;38460;53.106;7.004;2023-04-25T14:57:37;9.60;99.90
52565;DHT22;38460;53.106;7.004;2023-04-25T15:00:05;9.50;99.90
52565;DHT22;38460;53.106;7.004;2023-04-25T15:02:35;9.40;99.90
52565;DHT22;38460;53.106;7.004;2023-04-25T15:05:01;9.40;99.90
52565;DHT22;38460;53.106;7.004;2023-04-25T15:07:27;9.30;99.90
52565;DHT22;38460;53.106;7.004;2023-04-25T15:09:52;9.40;99.90
52565;DHT22;38460;53.106;7.004;2023-04-25T15:12:19;9.30;99.90
52565;DHT22;38460;53.106;7.004;2023-04-25T15:14:45;9.30;99.00
52565;DHT22;38460;53.106;7.004;2023-04-25T15:17:11;9.30;98.60
52565;DHT22;38460;53.106;7.004;2023-04-25T15:19:39;9.30;99.10
52565;DHT22;38460;53.106;7.004;2023-04-25T15:22:05;9.20;99.50
52565;DHT22;38460;53.106;7.004;2023-04-25T15:24:32;9.20;99.80
52565;DHT22;38460;53.106;7.004;2023-04-25T15:26:58;9.10;99.90
52565;DHT22;38460;53.106;7.004;2023-04-25T15:29:24;9.00;99.90
52565;DHT22;38460;53.106;7.004;2023-04-25T15:31:51;8.90;99.90
52565;DHT22;38460;53.106;7.004;2023-04-25T15:34:17;9.00;99.90
52565;DHT22;38460;53.106;7.004;2023-04-25T15:36:43;8.90;99.90
52565;DHT22;38460;53.106;7.004;2023-04-25T15:39:09;8.80;99.90
52565;DHT22;38460;53.106;7.004;2023-04-25T15:41:36;8.80;99.90
52565;DHT22;38460;53.106;7.004;2023-04-25T15:44:02;8.90;99.90
52565;DHT22;38460;53.106;7.004;2023-04-25T15:46:28;8.90;99.90
52565;DHT22;38460;53.106;7.004;2023-04-25T15:48:55;9.00;99.90
52565;DHT22;38460;53.106;7.004;2023-04-25T15:51:21;9.00;99.90
52565;DHT22;38460;53.106;7.004;2023-04-25T15:53:47;8.80;99.90
52565;DHT22;38460;53.106;7.004;2023-04-25T15:56:13;8.70;99.90
52565;DHT22;38460;53.106;7.004;2023-04-25T15:58:38;8.60;99.90
52565;DHT22;38460;53.106;7.004;2023-04-25T16:01:04;8.50;99.90
52565;DHT22;38460;53.106;7.004;2023-04-25T16:03:31;8.50;99.90
52565;DHT22;38460;53.106;7.004;2023-04-25T16:05:56;8.50;99.90
52565;DHT22;38460;53.106;7.004;2023-04-25T16:08:22;8.50;99.90
52565;DHT22;38460;53.106;7.004;2023-04-25T16:10:48;9.60;99.90
52565;DHT22;38460;53.106;7.004;2023-04-25T16:13:14;8.70;99.90
52565;DHT22;38460;53.106;7.004;2023-04-25T16:15:40;8.70;99.90
52565;DHT22;38460;53.106;7.004;2023-04-25T16:18:05;8.60;99.90
52565;DHT22;38460;53.106;7.004;2023-04-25T16:20:32;8.50;99.90
52565;DHT22;38460;53.106;7.004;2023-04-25T16:22:58;8.40;99.90